sensor_id;sensor_type;location;lat;lon;timestamp;P1;durP1;ratioP1;P2;durP2;ratioP2
20369;SDS011;10344;47.592;9.600;2024-03-23T00:53:53;2.20;;;2.00;;
20369;SDS011;10344;47.592;9.600;2024-03-23T00:56:21;2.55;;;2.00;;
20369;SDS011;10344;47.592;9.600;2024-03-23T00:58:47;2.80;;;2.05;;
20369;SDS011;10344;47.592;9.600;2024-03-23T01:01:13;2.77;;;2.00;;
20369;SDS011;10344;47.592;9.600;2024-03-23T01:03:43;2.75;;;2.30;;
20369;SDS011;10344;47.592;9.600;2024-03-23T01:06:09;2.60;;;2.10;;
20369;SDS011;10344;47.592;9.600;2024-03-23T01:08:35;2.72;;;1.88;;
20369;SDS011;10344;47.592;9.600;2024-03-23T01:11:00;3.17;;;2.30;;
20369;SDS011;10344;47.592;9.600;2024-03-23T01:13:29;2.50;;;1.92;;
20369;SDS011;10344;47.592;9.600;2024-03-23T01:15:55;3.03;;;1.90;;
20369;SDS011;10344;47.592;9.600;2024-03-23T01:18:24;2.15;;;1.95;;
20369;SDS011;10344;47.592;9.600;2024-03-23T01:20:51;2.63;;;2.20;;
20369;SDS011;10344;47.592;9.600;2024-03-23T01:23:17;2.40;;;1.90;;
20369;SDS011;10344;47.592;9.600;2024-03-23T01:25:42;3.43;;;2.10;;
20369;SDS011;10344;47.592;9.600;2024-03-23T01:28:08;2.80;;;1.90;;
20369;SDS011;10344;47.592;9.600;2024-03-23T01:30:34;2.90;;;2.10;;
20369;SDS011;10344;47.592;9.600;2024-03-23T01:33:00;2.28;;;2.08;;
20369;SDS011;10344;47.592;9.600;2024-03-23T01:35:29;2.60;;;1.70;;
20369;SDS011;10344;47.592;9.600;2024-03-23T01:37:57;2.35;;;2.10;;
20369;SDS011;10344;47.592;9.600;2024-03-23T01:40:25;2.07;;;1.80;;
20369;SDS011;10344;47.592;9.600;2024-03-23T01:42:58;2.10;;;1.90;;
20369;SDS011;10344;47.592;9.600;2024-03-23T01:45:28;2.20;;;1.90;;
20369;SDS011;10344;47.592;9.600;2024-03-23T01:47:55;3.22;;;1.98;;
20369;SDS011;10344;47.592;9.600;2024-03-23T01:50:20;2.80;;;2.00;;
20369;SDS011;10344;47.592;9.600;2024-03-23T01:52:46;2.25;;;2.05;;
20369;SDS011;10344;47.592;9.600;2024-03-23T01:55:13;2.15;;;1.85;;
20369;SDS011;10344;47.592;9.600;2024-03-23T01:57:38;2.28;;;1.92;;
20369;SDS011;10344;47.592;9.600;2024-03-23T02:00:04;2.60;;;1.80;;
20369;SDS011;10344;47.592;9.600;2024-03-23T02:02:34;2.47;;;1.70;;
20369;SDS011;10344;47.592;9.600;2024-03-23T02:04:59;3.07;;;2.00;;
20369;SDS011;10344;47.592;9.600;2024-03-23T02:07:25;1.90;;;1.60;;
20369;SDS011;10344;47.592;9.600;2024-03-23T02:09:53;1.83;;;1.60;;
20369;SDS011;10344;47.592;9.600;2024-03-23T02:12:19;1.98;;;1.42;;
20369;SDS011;10344;47.592;9.600;2024-03-23T02:14:46;1.50;;;1.40;;
20369;SDS011;10344;47.592;9.600;2024-03-23T02:17:12;2.37;;;1.60;;
20369;SDS011;10344;47.592;9.600;2024-03-23T02:19:38;1.98;;;1.60;;
20369;SDS011;10344;47.592;9.600;2024-03-23T02:22:06;1.70;;;1.55;;
20369;SDS011;10344;47.592;9.600;2024-03-23T02:24:31;2.93;;;1.80;;
20369;SDS011;10344;47.592;9.600;2024-03-23T02:26:59;1.70;;;1.60;;
20369;SDS011;10344;47.592;9.600;2024-03-23T02:29:28;2.80;;;1.57;;
20369;SDS011;10344;47.592;9.600;2024-03-23T02:31:56;2.03;;;1.50;;
20369;SDS011;10344;47.592;9.600;2024-03-23T02:34:21;2.53;;;1.73;;
20369;SDS011;10344;47.592;9.600;2024-03-23T02:36:47;2.37;;;1.80;;
20369;SDS011;10344;47.592;9.600;2024-03-23T02:39:12;2.97;;;1.60;;
20369;SDS011;10344;47.592;9.600;2024-03-23T02:41:38;1.60;;;1.50;;
20369;SDS011;10344;47.592;9.600;2024-03-23T02:44:06;1.77;;;1.33;;
20369;SDS011;10344;47.592;9.600;2024-03-23T02:46:32;2.67;;;1.70;;
20369;SDS011;10344;47.592;9.600;2024-03-23T02:48:58;2.90;;;1.70;;
20369;SDS011;10344;47.592;9.600;2024-03-23T02:51:24;1.70;;;1.60;;
20369;SDS011;10344;47.592;9.600;2024-03-23T02:53:49;2.80;;;1.70;;
20369;SDS011;10344;47.592;9.600;2024-03-23T02:56:15;1.70;;;1.45;;
20369;SDS011;10344;47.592;9.600;2024-03-23T02:58:43;2.10;;;1.70;;
20369;SDS011;10344;47.592;9.600;2024-03-23T03:01:08;2.65;;;1.63;;
20369;SDS011;10344;47.592;9.600;2024-03-23T03:03:34;1.60;;;1.50;;
20369;SDS011;10344;47.592;9.600;2024-03-23T03:06:00;1.50;;;1.30;;
20369;SDS011;10344;47.592;9.600;2024-03-23T03:08:25;2.97;;;1.80;;
20369;SDS011;10344;47.592;9.600;2024-03-23T03:10:53;1.70;;;1.60;;
20369;SDS011;10344;47.592;9.600;2024-03-23T03:13:19;1.73;;;1.48;;
20369;SDS011;10344;47.592;9.600;2024-03-23T03:15:44;1.60;;;1.37;;
20369;SDS011;10344;47.592;9.600;2024-03-23T03:18:10;1.50;;;1.40;;
20369;SDS011;10344;47.592;9.600;2024-03-23T03:20:41;1.57;;;1.47;;
20369;SDS011;10344;47.592;9.600;2024-03-23T03:23:11;1.88;;;1.30;;
20369;SDS011;10344;47.592;9.600;2024-03-23T03:25:39;1.55;;;1.42;;
20369;SDS011;10344;47.592;9.600;2024-03-23T03:28:04;1.45;;;1.35;;
20369;SDS011;10344;47.592;9.600;2024-03-23T03:30:33;1.40;;;1.30;;
20369;SDS011;10344;47.592;9.600;2024-03-23T03:32:58;1.75;;;1.27;;
20369;SDS011;10344;47.592;9.600;2024-03-23T03:35:26;1.50;;;1.40;;
20369;SDS011;10344;47.592;9.600;2024-03-23T03:37:52;1.75;;;1.40;;
20369;SDS011;10344;47.592;9.600;2024-03-23T03:40:18;2.78;;;1.10;;
20369;SDS011;10344;47.592;9.600;2024-03-23T03:42:46;2.90;;;1.50;;
20369;SDS011;10344;47.592;9.600;2024-03-23T03:45:11;1.48;;;1.38;;
20369;SDS011;10344;47.592;9.600;2024-03-23T03:47:37;1.70;;;1.60;;
20369;SDS011;10344;47.592;9.600;2024-03-23T03:50:02;1.27;;;1.17;;
20369;SDS011;10344;47.592;9.600;2024-03-23T03:52:30;1.48;;;1.38;;
20369;SDS011;10344;47.592;9.600;2024-03-23T03:55:00;1.27;;;1.17;;
20369;SDS011;10344;47.592;9.600;2024-03-23T03:57:27;1.10;;;1.00;;
20369;SDS011;10344;47.592;9.600;2024-03-23T03:59:55;1.30;;;1.20;;
20369;SDS011;10344;47.592;9.600;2024-03-23T04:02:21;2.92;;;1.40;;
20369;SDS011;10344;47.592;9.600;2024-03-23T04:04:49;1.50;;;1.20;;
20369;SDS011;10344;47.592;9.600;2024-03-23T04:07:14;1.50;;;1.40;;
20369;SDS011;10344;47.592;9.600;2024-03-23T04:09:43;1.00;;;1.00;;
20369;SDS011;10344;47.592;9.600;2024-03-23T04:12:09;1.70;;;1.20;;
20369;SDS011;10344;47.592;9.600;2024-03-23T04:14:34;1.53;;;1.20;;
20369;SDS011;10344;47.592;9.600;2024-03-23T04:17:00;1.57;;;1.40;;
20369;SDS011;10344;47.592;9.600;2024-03-23T04:19:25;1.60;;;1.20;;
20369;SDS011;10344;47.592;9.600;2024-03-23T04:21:51;1.40;;;1.30;;
20369;SDS011;10344;47.592;9.600;2024-03-23T04:24:16;1.70;;;1.40;;
20369;SDS011;10344;47.592;9.600;2024-03-23T04:26:44;1.42;;;1.10;;
20369;SDS011;10344;47.592;9.600;2024-03-23T04:29:11;1.20;;;1.10;;
20369;SDS011;10344;47.592;9.600;2024-03-23T04:31:37;1.20;;;1.10;;
20369;SDS011;10344;47.592;9.600;2024-03-23T04:34:03;0.98;;;0.90;;
20369;SDS011;10344;47.592;9.600;2024-03-23T04:36:29;1.63;;;1.30;;
20369;SDS011;10344;47.592;9.600;2024-03-23T04:38:56;1.40;;;1.25;;
20369;SDS011;10344;47.592;9.600;2024-03-23T04:41:25;1.15;;;1.08;;
20369;SDS011;10344;47.592;9.600;2024-03-23T04:43:51;1.40;;;1.20;;
20369;SDS011;10344;47.592;9.600;2024-03-23T04:46:17;1.83;;;1.20;;
20369;SDS011;10344;47.592;9.600;2024-03-23T04:48:42;1.55;;;1.23;;
20369;SDS011;10344;47.592;9.600;2024-03-23T04:51:10;1.33;;;1.17;;
20369;SDS011;10344;47.592;9.600;2024-03-23T04:53:46;1.20;;;1.08;;
20369;SDS011;10344;47.592;9.600;2024-03-23T04:56:13;1.25;;;1.15;;
20369;SDS011;10344;47.592;9.600;2024-03-23T04:58:42;1.55;;;1.30;;
20369;SDS011;10344;47.592;9.600;2024-03-23T05:01:08;1.65;;;1.17;;
20369;SDS011;10344;47.592;9.600;2024-03-23T05:03:34;1.63;;;1.23;;
20369;SDS011;10344;47.592;9.600;2024-03-23T05:06:00;2.47;;;1.30;;
20369;SDS011;10344;47.592;9.600;2024-03-23T05:08:28;1.77;;;1.23;;
20369;SDS011;10344;47.592;9.600;2024-03-23T05:10:53;1.40;;;1.20;;
20369;SDS011;10344;47.592;9.600;2024-03-23T05:13:19;1.20;;;1.10;;
20369;SDS011;10344;47.592;9.600;2024-03-23T05:15:50;1.67;;;1.13;;
20369;SDS011;10344;47.592;9.600;2024-03-23T05:18:19;1.25;;;1.20;;
20369;SDS011;10344;47.592;9.600;2024-03-23T05:20:45;1.40;;;1.20;;
20369;SDS011;10344;47.592;9.600;2024-03-23T05:23:13;1.58;;;1.40;;
20369;SDS011;10344;47.592;9.600;2024-03-23T05:25:38;2.80;;;1.30;;
20369;SDS011;10344;47.592;9.600;2024-03-23T05:28:04;1.57;;;1.30;;
20369;SDS011;10344;47.592;9.600;2024-03-23T05:30:30;1.27;;;1.17;;
20369;SDS011;10344;47.592;9.600;2024-03-23T05:33:00;1.33;;;1.23;;
20369;SDS011;10344;47.592;9.600;2024-03-23T05:35:28;2.05;;;1.08;;
20369;SDS011;10344;47.592;9.600;2024-03-23T05:37:54;2.03;;;1.30;;
20369;SDS011;10344;47.592;9.600;2024-03-23T05:40:19;1.25;;;1.10;;
20369;SDS011;10344;47.592;9.600;2024-03-23T05:42:45;1.42;;;1.23;;
20369;SDS011;10344;47.592;9.600;2024-03-23T05:45:11;1.60;;;1.38;;
20369;SDS011;10344;47.592;9.600;2024-03-23T05:47:39;2.20;;;1.33;;
20369;SDS011;10344;47.592;9.600;2024-03-23T05:50:04;1.17;;;1.07;;
20369;SDS011;10344;47.592;9.600;2024-03-23T05:52:30;1.30;;;1.20;;
20369;SDS011;10344;47.592;9.600;2024-03-23T05:54:56;1.57;;;1.10;;
20369;SDS011;10344;47.592;9.600;2024-03-23T05:57:23;1.85;;;1.20;;
20369;SDS011;10344;47.592;9.600;2024-03-23T05:59:48;2.35;;;1.30;;
20369;SDS011;10344;47.592;9.600;2024-03-23T06:02:17;1.20;;;1.10;;
20369;SDS011;10344;47.592;9.600;2024-03-23T06:04:42;1.77;;;1.13;;
20369;SDS011;10344;47.592;9.600;2024-03-23T06:07:10;1.30;;;1.05;;
20369;SDS011;10344;47.592;9.600;2024-03-23T06:09:38;1.30;;;1.20;;
20369;SDS011;10344;47.592;9.600;2024-03-23T06:12:07;1.42;;;1.10;;
20369;SDS011;10344;47.592;9.600;2024-03-23T06:14:34;1.10;;;1.00;;
20369;SDS011;10344;47.592;9.600;2024-03-23T06:17:00;2.38;;;1.30;;
20369;SDS011;10344;47.592;9.600;2024-03-23T06:19:27;2.17;;;1.42;;
20369;SDS011;10344;47.592;9.600;2024-03-23T06:21:53;2.00;;;1.58;;
20369;SDS011;10344;47.592;9.600;2024-03-23T06:24:20;2.30;;;1.70;;
20369;SDS011;10344;47.592;9.600;2024-03-23T06:26:49;3.57;;;2.40;;
20369;SDS011;10344;47.592;9.600;2024-03-23T06:29:15;4.10;;;1.92;;
20369;SDS011;10344;47.592;9.600;2024-03-23T06:31:41;3.73;;;2.30;;
20369;SDS011;10344;47.592;9.600;2024-03-23T06:34:09;2.53;;;2.30;;
20369;SDS011;10344;47.592;9.600;2024-03-23T06:36:34;3.22;;;2.30;;
20369;SDS011;10344;47.592;9.600;2024-03-23T06:39:01;3.47;;;2.35;;
20369;SDS011;10344;47.592;9.600;2024-03-23T06:41:27;3.27;;;2.20;;
20369;SDS011;10344;47.592;9.600;2024-03-23T06:43:52;2.93;;;2.30;;
20369;SDS011;10344;47.592;9.600;2024-03-23T06:46:18;2.30;;;2.10;;
20369;SDS011;10344;47.592;9.600;2024-03-23T06:48:44;3.13;;;2.33;;
20369;SDS011;10344;47.592;9.600;2024-03-23T06:51:10;2.88;;;2.40;;
20369;SDS011;10344;47.592;9.600;2024-03-23T06:53:36;4.13;;;2.78;;
20369;SDS011;10344;47.592;9.600;2024-03-23T06:56:02;5.45;;;2.67;;
20369;SDS011;10344;47.592;9.600;2024-03-23T06:58:27;3.50;;;2.67;;
20369;SDS011;10344;47.592;9.600;2024-03-23T07:00:53;2.50;;;2.10;;
20369;SDS011;10344;47.592;9.600;2024-03-23T07:03:21;3.10;;;2.40;;
20369;SDS011;10344;47.592;9.600;2024-03-23T07:05:47;4.10;;;2.78;;
20369;SDS011;10344;47.592;9.600;2024-03-23T07:08:12;3.47;;;2.50;;
20369;SDS011;10344;47.592;9.600;2024-03-23T07:10:41;2.73;;;2.50;;
20369;SDS011;10344;47.592;9.600;2024-03-23T07:13:07;2.85;;;2.58;;
20369;SDS011;10344;47.592;9.600;2024-03-23T07:15:33;2.70;;;2.47;;
20369;SDS011;10344;47.592;9.600;2024-03-23T07:17:59;3.65;;;2.70;;
20369;SDS011;10344;47.592;9.600;2024-03-23T07:20:24;3.42;;;2.80;;
20369;SDS011;10344;47.592;9.600;2024-03-23T07:22:55;3.73;;;3.00;;
20369;SDS011;10344;47.592;9.600;2024-03-23T07:25:20;4.57;;;3.10;;
20369;SDS011;10344;47.592;9.600;2024-03-23T07:27:48;3.45;;;2.88;;
20369;SDS011;10344;47.592;9.600;2024-03-23T07:30:17;4.38;;;3.03;;
20369;SDS011;10344;47.592;9.600;2024-03-23T07:32:46;4.10;;;2.93;;
20369;SDS011;10344;47.592;9.600;2024-03-23T07:35:14;4.40;;;2.88;;
20369;SDS011;10344;47.592;9.600;2024-03-23T07:37:40;3.97;;;3.03;;
20369;SDS011;10344;47.592;9.600;2024-03-23T07:40:06;4.53;;;3.10;;
20369;SDS011;10344;47.592;9.600;2024-03-23T07:42:35;3.22;;;2.92;;
20369;SDS011;10344;47.592;9.600;2024-03-23T07:45:00;4.73;;;3.37;;
20369;SDS011;10344;47.592;9.600;2024-03-23T07:47:26;3.78;;;3.17;;
20369;SDS011;10344;47.592;9.600;2024-03-23T07:49:51;4.80;;;3.30;;
20369;SDS011;10344;47.592;9.600;2024-03-23T07:52:17;3.33;;;3.00;;
20369;SDS011;10344;47.592;9.600;2024-03-23T07:54:43;3.93;;;2.90;;
20369;SDS011;10344;47.592;9.600;2024-03-23T07:57:09;3.05;;;2.75;;
20369;SDS011;10344;47.592;9.600;2024-03-23T07:59:34;3.35;;;3.05;;
20369;SDS011;10344;47.592;9.600;2024-03-23T08:02:00;3.13;;;2.80;;
20369;SDS011;10344;47.592;9.600;2024-03-23T08:04:27;4.03;;;2.70;;
20369;SDS011;10344;47.592;9.600;2024-03-23T08:06:53;2.80;;;2.55;;
20369;SDS011;10344;47.592;9.600;2024-03-23T08:09:18;3.27;;;2.97;;
20369;SDS011;10344;47.592;9.600;2024-03-23T08:11:47;3.37;;;2.60;;
20369;SDS011;10344;47.592;9.600;2024-03-23T08:14:13;3.00;;;2.70;;
20369;SDS011;10344;47.592;9.600;2024-03-23T08:16:38;3.13;;;2.83;;
20369;SDS011;10344;47.592;9.600;2024-03-23T08:19:04;3.83;;;2.80;;
20369;SDS011;10344;47.592;9.600;2024-03-23T08:21:30;3.40;;;2.80;;
20369;SDS011;10344;47.592;9.600;2024-03-23T08:23:58;3.17;;;2.88;;
20369;SDS011;10344;47.592;9.600;2024-03-23T08:26:24;3.60;;;2.93;;
20369;SDS011;10344;47.592;9.600;2024-03-23T08:28:51;3.13;;;2.80;;
20369;SDS011;10344;47.592;9.600;2024-03-23T08:31:17;3.27;;;2.70;;
20369;SDS011;10344;47.592;9.600;2024-03-23T08:33:42;3.20;;;2.90;;
20369;SDS011;10344;47.592;9.600;2024-03-23T08:36:09;3.20;;;2.90;;
20369;SDS011;10344;47.592;9.600;2024-03-23T08:38:39;3.42;;;2.83;;
20369;SDS011;10344;47.592;9.600;2024-03-23T08:41:05;3.33;;;3.00;;
20369;SDS011;10344;47.592;9.600;2024-03-23T08:43:32;3.15;;;2.80;;
20369;SDS011;10344;47.592;9.600;2024-03-23T08:46:03;3.15;;;2.58;;
20369;SDS011;10344;47.592;9.600;2024-03-23T08:48:30;3.22;;;2.85;;
20369;SDS011;10344;47.592;9.600;2024-03-23T08:51:02;3.20;;;2.90;;
20369;SDS011;10344;47.592;9.600;2024-03-23T08:53:29;3.40;;;3.10;;
20369;SDS011;10344;47.592;9.600;2024-03-23T08:55:56;3.78;;;2.80;;
20369;SDS011;10344;47.592;9.600;2024-03-23T08:58:23;2.20;;;1.98;;
20369;SDS011;10344;47.592;9.600;2024-03-23T09:00:49;1.50;;;1.30;;
20369;SDS011;10344;47.592;9.600;2024-03-23T09:03:21;1.00;;;0.70;;
20369;SDS011;10344;47.592;9.600;2024-03-23T09:05:50;0.70;;;0.63;;
20369;SDS011;10344;47.592;9.600;2024-03-23T09:08:16;0.90;;;0.60;;
20369;SDS011;10344;47.592;9.600;2024-03-23T09:10:42;0.70;;;0.70;;
20369;SDS011;10344;47.592;9.600;2024-03-23T09:13:08;0.80;;;0.60;;
20369;SDS011;10344;47.592;9.600;2024-03-23T09:15:37;0.50;;;0.50;;
20369;SDS011;10344;47.592;9.600;2024-03-23T09:18:10;0.80;;;0.60;;
20369;SDS011;10344;47.592;9.600;2024-03-23T09:20:36;0.60;;;0.60;;
20369;SDS011;10344;47.592;9.600;2024-03-23T09:23:04;0.60;;;0.60;;
20369;SDS011;10344;47.592;9.600;2024-03-23T09:25:32;0.57;;;0.57;;
20369;SDS011;10344;47.592;9.600;2024-03-23T09:28:01;1.00;;;0.60;;
20369;SDS011;10344;47.592;9.600;2024-03-23T09:30:27;0.40;;;0.40;;
20369;SDS011;10344;47.592;9.600;2024-03-23T09:32:52;0.70;;;0.70;;
20369;SDS011;10344;47.592;9.600;2024-03-23T09:35:18;0.83;;;0.60;;
20369;SDS011;10344;47.592;9.600;2024-03-23T09:37:44;0.60;;;0.60;;
20369;SDS011;10344;47.592;9.600;2024-03-23T09:40:10;0.60;;;0.50;;
20369;SDS011;10344;47.592;9.600;2024-03-23T09:42:36;0.80;;;0.60;;
20369;SDS011;10344;47.592;9.600;2024-03-23T09:45:02;0.50;;;0.50;;
20369;SDS011;10344;47.592;9.600;2024-03-23T09:47:32;0.60;;;0.60;;
20369;SDS011;10344;47.592;9.600;2024-03-23T09:49:59;1.50;;;0.60;;
20369;SDS011;10344;47.592;9.600;2024-03-23T09:52:25;0.55;;;0.55;;
20369;SDS011;10344;47.592;9.600;2024-03-23T09:54:53;0.67;;;0.50;;
20369;SDS011;10344;47.592;9.600;2024-03-23T09:57:19;0.47;;;0.47;;
20369;SDS011;10344;47.592;9.600;2024-03-23T09:59:47;0.73;;;0.45;;
20369;SDS011;10344;47.592;9.600;2024-03-23T10:02:12;0.53;;;0.53;;
20369;SDS011;10344;47.592;9.600;2024-03-23T10:04:42;0.40;;;0.40;;
20369;SDS011;10344;47.592;9.600;2024-03-23T10:07:15;0.50;;;0.50;;
20369;SDS011;10344;47.592;9.600;2024-03-23T10:09:44;0.30;;;0.30;;
20369;SDS011;10344;47.592;9.600;2024-03-23T10:12:13;0.52;;;0.50;;
20369;SDS011;10344;47.592;9.600;2024-03-23T10:14:40;0.85;;;0.60;;
20369;SDS011;10344;47.592;9.600;2024-03-23T10:17:16;0.40;;;0.40;;
20369;SDS011;10344;47.592;9.600;2024-03-23T10:19:44;0.45;;;0.45;;
20369;SDS011;10344;47.592;9.600;2024-03-23T10:22:18;0.45;;;0.45;;
20369;SDS011;10344;47.592;9.600;2024-03-23T10:24:49;0.60;;;0.60;;
20369;SDS011;10344;47.592;9.600;2024-03-23T10:27:19;0.50;;;0.50;;
20369;SDS011;10344;47.592;9.600;2024-03-23T10:29:46;0.73;;;0.50;;
20369;SDS011;10344;47.592;9.600;2024-03-23T10:32:12;0.40;;;0.40;;
20369;SDS011;10344;47.592;9.600;2024-03-23T10:34:41;0.40;;;0.40;;
20369;SDS011;10344;47.592;9.600;2024-03-23T10:37:07;0.40;;;0.40;;
20369;SDS011;10344;47.592;9.600;2024-03-23T10:39:34;0.40;;;0.40;;
20369;SDS011;10344;47.592;9.600;2024-03-23T10:42:08;0.50;;;0.30;;
20369;SDS011;10344;47.592;9.600;2024-03-23T10:44:37;0.70;;;0.45;;
20369;SDS011;10344;47.592;9.600;2024-03-23T10:47:05;0.57;;;0.50;;
20369;SDS011;10344;47.592;9.600;2024-03-23T10:49:33;0.45;;;0.45;;
20369;SDS011;10344;47.592;9.600;2024-03-23T10:52:00;1.50;;;0.70;;
20369;SDS011;10344;47.592;9.600;2024-03-23T10:54:31;0.50;;;0.50;;
20369;SDS011;10344;47.592;9.600;2024-03-23T10:59:25;0.90;;;0.67;;
20369;SDS011;10344;47.592;9.600;2024-03-23T11:01:55;0.85;;;0.82;;
20369;SDS011;10344;47.592;9.600;2024-03-23T11:04:31;2.40;;;0.90;;
20369;SDS011;10344;47.592;9.600;2024-03-23T11:06:57;1.60;;;1.08;;
20369;SDS011;10344;47.592;9.600;2024-03-23T11:12:46;2.45;;;1.05;;
20369;SDS011;10344;47.592;9.600;2024-03-23T11:15:06;2.75;;;1.30;;
20369;SDS011;10344;47.592;9.600;2024-03-23T11:17:37;2.13;;;1.20;;
20369;SDS011;10344;47.592;9.600;2024-03-23T11:20:03;2.95;;;1.20;;
20369;SDS011;10344;47.592;9.600;2024-03-23T11:25:21;2.85;;;1.40;;
20369;SDS011;10344;47.592;9.600;2024-03-23T11:27:57;2.80;;;1.20;;
20369;SDS011;10344;47.592;9.600;2024-03-23T11:30:34;2.97;;;1.20;;
20369;SDS011;10344;47.592;9.600;2024-03-23T11:32:59;4.20;;;1.88;;
20369;SDS011;10344;47.592;9.600;2024-03-23T11:35:34;3.70;;;1.40;;
20369;SDS011;10344;47.592;9.600;2024-03-23T11:38:10;2.63;;;1.27;;
20369;SDS011;10344;47.592;9.600;2024-03-23T11:40:46;4.32;;;1.80;;
20369;SDS011;10344;47.592;9.600;2024-03-23T11:43:17;2.22;;;1.35;;
20369;SDS011;10344;47.592;9.600;2024-03-23T11:48:18;3.35;;;1.42;;
20369;SDS011;10344;47.592;9.600;2024-03-23T11:50:48;2.33;;;1.50;;
20369;SDS011;10344;47.592;9.600;2024-03-23T11:55:50;2.75;;;1.40;;
20369;SDS011;10344;47.592;9.600;2024-03-23T11:58:17;3.97;;;1.63;;
20369;SDS011;10344;47.592;9.600;2024-03-23T12:03:20;3.78;;;1.40;;
20369;SDS011;10344;47.592;9.600;2024-03-23T12:05:50;3.67;;;1.30;;
20369;SDS011;10344;47.592;9.600;2024-03-23T12:08:36;3.47;;;1.70;;
20369;SDS011;10344;47.592;9.600;2024-03-23T12:13:35;3.28;;;1.35;;
20369;SDS011;10344;47.592;9.600;2024-03-23T12:16:11;2.17;;;1.30;;
20369;SDS011;10344;47.592;9.600;2024-03-23T12:18:39;3.35;;;1.23;;
20369;SDS011;10344;47.592;9.600;2024-03-23T12:21:11;3.33;;;1.30;;
20369;SDS011;10344;47.592;9.600;2024-03-23T12:23:39;3.78;;;1.50;;
20369;SDS011;10344;47.592;9.600;2024-03-23T12:26:05;3.63;;;1.30;;
20369;SDS011;10344;47.592;9.600;2024-03-23T12:28:31;4.70;;;1.30;;
20369;SDS011;10344;47.592;9.600;2024-03-23T12:30:57;3.75;;;1.42;;
20369;SDS011;10344;47.592;9.600;2024-03-23T12:33:23;4.28;;;1.50;;
20369;SDS011;10344;47.592;9.600;2024-03-23T12:35:49;3.58;;;1.50;;
20369;SDS011;10344;47.592;9.600;2024-03-23T12:38:15;3.75;;;1.30;;
20369;SDS011;10344;47.592;9.600;2024-03-23T12:40:42;4.05;;;1.45;;
20369;SDS011;10344;47.592;9.600;2024-03-23T12:43:12;5.00;;;1.55;;
20369;SDS011;10344;47.592;9.600;2024-03-23T12:45:38;2.35;;;1.15;;
20369;SDS011;10344;47.592;9.600;2024-03-23T12:48:03;4.65;;;1.60;;
20369;SDS011;10344;47.592;9.600;2024-03-23T12:50:29;4.10;;;1.30;;
20369;SDS011;10344;47.592;9.600;2024-03-23T12:52:55;3.03;;;1.13;;
20369;SDS011;10344;47.592;9.600;2024-03-23T12:55:20;1.92;;;1.00;;
20369;SDS011;10344;47.592;9.600;2024-03-23T12:57:46;1.40;;;1.00;;
20369;SDS011;10344;47.592;9.600;2024-03-23T13:00:13;4.17;;;1.27;;
20369;SDS011;10344;47.592;9.600;2024-03-23T13:02:44;3.07;;;1.27;;
20369;SDS011;10344;47.592;9.600;2024-03-23T13:05:14;2.70;;;1.23;;
20369;SDS011;10344;47.592;9.600;2024-03-23T13:07:40;2.20;;;1.30;;
20369;SDS011;10344;47.592;9.600;2024-03-23T13:10:06;3.55;;;1.23;;
20369;SDS011;10344;47.592;9.600;2024-03-23T13:12:32;3.20;;;1.27;;
20369;SDS011;10344;47.592;9.600;2024-03-23T13:14:58;4.37;;;1.40;;
20369;SDS011;10344;47.592;9.600;2024-03-23T13:17:25;5.00;;;1.60;;
20369;SDS011;10344;47.592;9.600;2024-03-23T13:19:52;2.67;;;1.25;;
20369;SDS011;10344;47.592;9.600;2024-03-23T13:22:18;3.47;;;1.40;;
20369;SDS011;10344;47.592;9.600;2024-03-23T13:24:44;3.88;;;1.30;;
20369;SDS011;10344;47.592;9.600;2024-03-23T13:27:09;1.92;;;1.25;;
20369;SDS011;10344;47.592;9.600;2024-03-23T13:29:36;2.63;;;1.00;;
20369;SDS011;10344;47.592;9.600;2024-03-23T13:32:02;2.92;;;1.33;;
20369;SDS011;10344;47.592;9.600;2024-03-23T13:34:28;1.35;;;0.80;;
20369;SDS011;10344;47.592;9.600;2024-03-23T13:36:58;2.58;;;1.33;;
20369;SDS011;10344;47.592;9.600;2024-03-23T13:39:24;2.13;;;1.00;;
20369;SDS011;10344;47.592;9.600;2024-03-23T13:41:50;2.67;;;1.35;;
20369;SDS011;10344;47.592;9.600;2024-03-23T13:44:18;2.33;;;1.20;;
20369;SDS011;10344;47.592;9.600;2024-03-23T13:46:44;1.10;;;0.98;;
20369;SDS011;10344;47.592;9.600;2024-03-23T13:49:28;2.17;;;1.10;;
20369;SDS011;10344;47.592;9.600;2024-03-23T13:51:57;1.55;;;0.90;;
20369;SDS011;10344;47.592;9.600;2024-03-23T13:54:27;0.98;;;0.60;;
20369;SDS011;10344;47.592;9.600;2024-03-23T13:56:53;1.25;;;0.80;;
20369;SDS011;10344;47.592;9.600;2024-03-23T13:59:22;1.80;;;0.73;;
20369;SDS011;10344;47.592;9.600;2024-03-23T14:01:48;1.38;;;0.90;;
20369;SDS011;10344;47.592;9.600;2024-03-23T14:04:16;0.80;;;0.60;;
20369;SDS011;10344;47.592;9.600;2024-03-23T14:06:42;1.90;;;0.90;;
20369;SDS011;10344;47.592;9.600;2024-03-23T14:09:11;2.38;;;0.90;;
20369;SDS011;10344;47.592;9.600;2024-03-23T14:11:37;2.38;;;0.85;;
20369;SDS011;10344;47.592;9.600;2024-03-23T14:14:03;2.50;;;0.93;;
20369;SDS011;10344;47.592;9.600;2024-03-23T14:16:32;3.85;;;1.17;;
20369;SDS011;10344;47.592;9.600;2024-03-23T14:19:00;1.88;;;1.00;;
20369;SDS011;10344;47.592;9.600;2024-03-23T14:21:26;1.33;;;0.85;;
20369;SDS011;10344;47.592;9.600;2024-03-23T14:23:51;1.67;;;0.90;;
20369;SDS011;10344;47.592;9.600;2024-03-23T14:26:18;2.22;;;0.90;;
20369;SDS011;10344;47.592;9.600;2024-03-23T14:28:46;3.58;;;1.10;;
20369;SDS011;10344;47.592;9.600;2024-03-23T14:31:12;2.38;;;1.00;;
20369;SDS011;10344;47.592;9.600;2024-03-23T14:33:38;2.10;;;0.85;;
20369;SDS011;10344;47.592;9.600;2024-03-23T14:36:12;2.47;;;0.93;;
20369;SDS011;10344;47.592;9.600;2024-03-23T14:38:41;3.25;;;1.10;;
20369;SDS011;10344;47.592;9.600;2024-03-23T14:41:09;2.95;;;1.00;;
20369;SDS011;10344;47.592;9.600;2024-03-23T14:43:35;4.78;;;1.30;;
20369;SDS011;10344;47.592;9.600;2024-03-23T14:46:13;2.17;;;1.50;;
20369;SDS011;10344;47.592;9.600;2024-03-23T14:48:40;3.60;;;1.20;;
20369;SDS011;10344;47.592;9.600;2024-03-23T14:51:11;2.78;;;1.30;;
20369;SDS011;10344;47.592;9.600;2024-03-23T14:53:38;3.78;;;1.20;;
20369;SDS011;10344;47.592;9.600;2024-03-23T14:56:08;2.53;;;1.30;;
20369;SDS011;10344;47.592;9.600;2024-03-23T14:58:36;2.35;;;1.13;;
20369;SDS011;10344;47.592;9.600;2024-03-23T15:01:03;1.58;;;0.90;;
20369;SDS011;10344;47.592;9.600;2024-03-23T15:03:29;2.40;;;0.97;;
20369;SDS011;10344;47.592;9.600;2024-03-23T15:05:55;1.40;;;1.10;;
20369;SDS011;10344;47.592;9.600;2024-03-23T15:08:22;1.92;;;1.15;;
20369;SDS011;10344;47.592;9.600;2024-03-23T15:10:48;1.73;;;0.82;;
20369;SDS011;10344;47.592;9.600;2024-03-23T15:13:14;2.22;;;1.27;;
20369;SDS011;10344;47.592;9.600;2024-03-23T15:15:40;4.03;;;1.20;;
20369;SDS011;10344;47.592;9.600;2024-03-23T15:18:08;2.97;;;1.42;;
20369;SDS011;10344;47.592;9.600;2024-03-23T15:20:37;3.92;;;1.42;;
20369;SDS011;10344;47.592;9.600;2024-03-23T15:23:03;2.20;;;1.30;;
20369;SDS011;10344;47.592;9.600;2024-03-23T15:25:32;3.13;;;1.23;;
20369;SDS011;10344;47.592;9.600;2024-03-23T15:27:57;2.13;;;1.20;;
20369;SDS011;10344;47.592;9.600;2024-03-23T15:30:25;1.42;;;1.00;;
20369;SDS011;10344;47.592;9.600;2024-03-23T15:32:53;1.90;;;1.02;;
20369;SDS011;10344;47.592;9.600;2024-03-23T15:35:18;2.23;;;1.20;;
20369;SDS011;10344;47.592;9.600;2024-03-23T15:37:47;2.28;;;1.30;;
20369;SDS011;10344;47.592;9.600;2024-03-23T15:40:13;1.80;;;1.10;;
20369;SDS011;10344;47.592;9.600;2024-03-23T15:42:39;3.40;;;1.20;;
20369;SDS011;10344;47.592;9.600;2024-03-23T15:45:07;3.70;;;1.20;;
20369;SDS011;10344;47.592;9.600;2024-03-23T15:47:34;3.42;;;1.30;;
20369;SDS011;10344;47.592;9.600;2024-03-23T15:50:00;4.03;;;1.25;;
20369;SDS011;10344;47.592;9.600;2024-03-23T15:52:28;3.30;;;1.33;;
20369;SDS011;10344;47.592;9.600;2024-03-23T15:54:54;3.03;;;1.15;;
20369;SDS011;10344;47.592;9.600;2024-03-23T15:57:21;2.92;;;0.98;;
20369;SDS011;10344;47.592;9.600;2024-03-23T15:59:49;4.47;;;1.20;;